sensor_id;sensor_type;location;lat;lon;timestamp;P1;durP1;ratioP1;P2;durP2;ratioP2
7497;SDS011;3790;48.806;9.140;2023-02-22T00:03:49;5.00;;;2.93;;
7497;SDS011;3790;48.806;9.140;2023-02-22T00:08:51;6.77;;;3.33;;
7497;SDS011;3790;48.806;9.140;2023-02-22T00:13:52;5.83;;;3.60;;
7497;SDS011;3790;48.806;9.140;2023-02-22T00:18:56;4.87;;;3.03;;
7497;SDS011;3790;48.806;9.140;2023-02-22T00:23:56;5.93;;;2.83;;
7497;SDS011;3790;48.806;9.140;2023-02-22T00:28:57;8.10;;;3.00;;
7497;SDS011;3790;48.806;9.140;2023-02-22T00:33:57;4.27;;;2.67;;
7497;SDS011;3790;48.806;9.140;2023-02-22T00:38:58;4.67;;;2.37;;
7497;SDS011;3790;48.806;9.140;2023-02-22T00:43:58;4.03;;;2.23;;
7497;SDS011;3790;48.806;9.140;2023-02-22T00:48:59;4.83;;;2.73;;
7497;SDS011;3790;48.806;9.140;2023-02-22T00:53:59;3.87;;;2.87;;
7497;SDS011;3790;48.806;9.140;2023-02-22T00:59:00;4.83;;;2.80;;
7497;SDS011;3790;48.806;9.140;2023-02-22T01:04:00;4.93;;;2.63;;
7497;SDS011;3790;48.806;9.140;2023-02-22T01:09:02;3.37;;;2.20;;
7497;SDS011;3790;48.806;9.140;2023-02-22T01:14:04;4.13;;;1.73;;
7497;SDS011;3790;48.806;9.140;2023-02-22T01:19:08;3.57;;;1.70;;
7497;SDS011;3790;48.806;9.140;2023-02-22T01:24:10;3.57;;;1.83;;
7497;SDS011;3790;48.806;9.140;2023-02-22T01:29:15;6.70;;;2.73;;
7497;SDS011;3790;48.806;9.140;2023-02-22T01:34:17;5.70;;;3.23;;
7497;SDS011;3790;48.806;9.140;2023-02-22T01:39:18;6.83;;;2.97;;
7497;SDS011;3790;48.806;9.140;2023-02-22T01:44:21;5.07;;;2.60;;
7497;SDS011;3790;48.806;9.140;2023-02-22T01:49:32;4.60;;;3.07;;
7497;SDS011;3790;48.806;9.140;2023-02-22T01:54:41;5.13;;;3.13;;
7497;SDS011;3790;48.806;9.140;2023-02-22T01:59:46;3.60;;;2.10;;
7497;SDS011;3790;48.806;9.140;2023-02-22T02:04:50;3.13;;;1.90;;
7497;SDS011;3790;48.806;9.140;2023-02-22T02:09:56;5.57;;;2.47;;
7497;SDS011;3790;48.806;9.140;2023-02-22T02:37:01;3.67;;;2.13;;
7497;SDS011;3790;48.806;9.140;2023-02-22T02:42:09;3.90;;;2.33;;
7497;SDS011;3790;48.806;9.140;2023-02-22T02:47:18;5.30;;;2.43;;
7497;SDS011;3790;48.806;9.140;2023-02-22T02:52:26;6.07;;;2.27;;
7497;SDS011;3790;48.806;9.140;2023-02-22T02:57:28;5.10;;;2.10;;
7497;SDS011;3790;48.806;9.140;2023-02-22T03:03:13;3.20;;;2.10;;
7497;SDS011;3790;48.806;9.140;2023-02-22T03:13:03;5.17;;;2.47;;
7497;SDS011;3790;48.806;9.140;2023-02-22T03:18:14;3.93;;;2.67;;
7497;SDS011;3790;48.806;9.140;2023-02-22T03:23:31;5.10;;;2.67;;
7497;SDS011;3790;48.806;9.140;2023-02-22T03:28:41;9.57;;;3.07;;
7497;SDS011;3790;48.806;9.140;2023-02-22T03:33:49;7.37;;;3.33;;
7497;SDS011;3790;48.806;9.140;2023-02-22T03:38:53;4.93;;;2.73;;
7497;SDS011;3790;48.806;9.140;2023-02-22T03:43:57;6.10;;;3.37;;
7497;SDS011;3790;48.806;9.140;2023-02-22T03:49:01;6.13;;;3.23;;
7497;SDS011;3790;48.806;9.140;2023-02-22T03:54:09;5.97;;;2.73;;
7497;SDS011;3790;48.806;9.140;2023-02-22T03:59:15;6.33;;;3.13;;
7497;SDS011;3790;48.806;9.140;2023-02-22T04:04:17;8.33;;;3.00;;
7497;SDS011;3790;48.806;9.140;2023-02-22T04:09:17;6.23;;;3.50;;
7497;SDS011;3790;48.806;9.140;2023-02-22T04:14:18;7.90;;;4.00;;
7497;SDS011;3790;48.806;9.140;2023-02-22T04:19:19;10.13;;;4.47;;
7497;SDS011;3790;48.806;9.140;2023-02-22T04:24:20;6.97;;;3.87;;
7497;SDS011;3790;48.806;9.140;2023-02-22T04:29:20;5.70;;;3.60;;
7497;SDS011;3790;48.806;9.140;2023-02-22T04:34:21;6.33;;;3.77;;
7497;SDS011;3790;48.806;9.140;2023-02-22T04:39:21;7.77;;;3.90;;
7497;SDS011;3790;48.806;9.140;2023-02-22T04:44:22;10.97;;;4.50;;
7497;SDS011;3790;48.806;9.140;2023-02-22T04:49:22;6.17;;;4.13;;
7497;SDS011;3790;48.806;9.140;2023-02-22T04:54:23;4.43;;;3.00;;
7497;SDS011;3790;48.806;9.140;2023-02-22T04:59:23;7.57;;;4.50;;
7497;SDS011;3790;48.806;9.140;2023-02-22T05:04:24;8.27;;;4.83;;
7497;SDS011;3790;48.806;9.140;2023-02-22T05:09:24;8.13;;;4.43;;
7497;SDS011;3790;48.806;9.140;2023-02-22T05:14:25;6.40;;;4.20;;
7497;SDS011;3790;48.806;9.140;2023-02-22T05:19:26;8.07;;;3.40;;
7497;SDS011;3790;48.806;9.140;2023-02-22T05:24:27;5.83;;;4.10;;
7497;SDS011;3790;48.806;9.140;2023-02-22T05:29:27;5.57;;;3.63;;
7497;SDS011;3790;48.806;9.140;2023-02-22T05:34:28;6.40;;;3.67;;
7497;SDS011;3790;48.806;9.140;2023-02-22T05:39:30;6.23;;;3.97;;
7497;SDS011;3790;48.806;9.140;2023-02-22T05:44:30;6.87;;;4.37;;
7497;SDS011;3790;48.806;9.140;2023-02-22T05:49:31;7.77;;;4.17;;
7497;SDS011;3790;48.806;9.140;2023-02-22T05:54:31;8.27;;;4.30;;
7497;SDS011;3790;48.806;9.140;2023-02-22T05:59:32;5.67;;;3.80;;
7497;SDS011;3790;48.806;9.140;2023-02-22T06:04:32;10.87;;;3.60;;
7497;SDS011;3790;48.806;9.140;2023-02-22T06:09:33;7.00;;;4.23;;
7497;SDS011;3790;48.806;9.140;2023-02-22T06:14:33;8.23;;;4.17;;
7497;SDS011;3790;48.806;9.140;2023-02-22T06:19:34;7.33;;;4.57;;
7497;SDS011;3790;48.806;9.140;2023-02-22T06:24:37;7.03;;;4.53;;
7497;SDS011;3790;48.806;9.140;2023-02-22T06:29:38;8.67;;;4.83;;
7497;SDS011;3790;48.806;9.140;2023-02-22T06:34:39;6.43;;;3.70;;
7497;SDS011;3790;48.806;9.140;2023-02-22T06:39:42;6.63;;;4.73;;
7497;SDS011;3790;48.806;9.140;2023-02-22T06:44:43;8.83;;;5.07;;
7497;SDS011;3790;48.806;9.140;2023-02-22T06:49:43;9.33;;;5.40;;
7497;SDS011;3790;48.806;9.140;2023-02-22T06:54:44;9.03;;;5.07;;
7497;SDS011;3790;48.806;9.140;2023-02-22T06:59:44;6.73;;;4.53;;
7497;SDS011;3790;48.806;9.140;2023-02-22T07:04:45;8.60;;;5.03;;
7497;SDS011;3790;48.806;9.140;2023-02-22T07:09:45;8.27;;;4.87;;
7497;SDS011;3790;48.806;9.140;2023-02-22T07:14:46;10.37;;;4.87;;
7497;SDS011;3790;48.806;9.140;2023-02-22T07:19:47;7.23;;;4.30;;
7497;SDS011;3790;48.806;9.140;2023-02-22T07:24:47;6.97;;;4.20;;
7497;SDS011;3790;48.806;9.140;2023-02-22T07:29:48;6.03;;;4.07;;
7497;SDS011;3790;48.806;9.140;2023-02-22T07:34:48;7.30;;;3.87;;
7497;SDS011;3790;48.806;9.140;2023-02-22T07:39:49;11.73;;;4.23;;
7497;SDS011;3790;48.806;9.140;2023-02-22T07:44:49;8.50;;;4.57;;
7497;SDS011;3790;48.806;9.140;2023-02-22T07:49:50;4.27;;;3.00;;
7497;SDS011;3790;48.806;9.140;2023-02-22T07:54:50;7.87;;;4.17;;
7497;SDS011;3790;48.806;9.140;2023-02-22T07:59:51;4.90;;;3.63;;
7497;SDS011;3790;48.806;9.140;2023-02-22T08:04:51;9.23;;;3.57;;
7497;SDS011;3790;48.806;9.140;2023-02-22T08:09:52;5.10;;;3.63;;
7497;SDS011;3790;48.806;9.140;2023-02-22T08:14:52;10.07;;;4.73;;
7497;SDS011;3790;48.806;9.140;2023-02-22T08:19:53;7.90;;;3.87;;
7497;SDS011;3790;48.806;9.140;2023-02-22T08:24:53;5.30;;;3.73;;
7497;SDS011;3790;48.806;9.140;2023-02-22T08:29:54;6.13;;;3.73;;
7497;SDS011;3790;48.806;9.140;2023-02-22T08:34:55;6.47;;;3.90;;
7497;SDS011;3790;48.806;9.140;2023-02-22T08:39:56;3.60;;;3.10;;
7497;SDS011;3790;48.806;9.140;2023-02-22T08:44:56;6.70;;;3.83;;
7497;SDS011;3790;48.806;9.140;2023-02-22T08:49:57;5.40;;;4.23;;
7497;SDS011;3790;48.806;9.140;2023-02-22T08:54:57;6.57;;;4.30;;
7497;SDS011;3790;48.806;9.140;2023-02-22T08:59:58;6.57;;;3.90;;
7497;SDS011;3790;48.806;9.140;2023-02-22T09:05:01;6.53;;;3.53;;
7497;SDS011;3790;48.806;9.140;2023-02-22T09:10:01;5.20;;;3.70;;
7497;SDS011;3790;48.806;9.140;2023-02-22T09:15:02;5.63;;;3.50;;
7497;SDS011;3790;48.806;9.140;2023-02-22T09:20:04;13.67;;;3.63;;
7497;SDS011;3790;48.806;9.140;2023-02-22T09:25:05;5.23;;;2.80;;
7497;SDS011;3790;48.806;9.140;2023-02-22T09:30:07;5.17;;;2.87;;
7497;SDS011;3790;48.806;9.140;2023-02-22T09:35:10;3.97;;;2.53;;
7497;SDS011;3790;48.806;9.140;2023-02-22T09:40:16;4.10;;;2.90;;
7497;SDS011;3790;48.806;9.140;2023-02-22T09:45:26;4.63;;;2.97;;
7497;SDS011;3790;48.806;9.140;2023-02-22T09:50:36;15.37;;;3.27;;
7497;SDS011;3790;48.806;9.140;2023-02-22T09:55:42;3.80;;;2.43;;
7497;SDS011;3790;48.806;9.140;2023-02-22T10:00:47;3.57;;;2.23;;
7497;SDS011;3790;48.806;9.140;2023-02-22T10:05:57;5.57;;;3.23;;
7497;SDS011;3790;48.806;9.140;2023-02-22T10:16:24;3.93;;;2.50;;
7497;SDS011;3790;48.806;9.140;2023-02-22T10:21:29;9.90;;;3.07;;
7497;SDS011;3790;48.806;9.140;2023-02-22T10:26:42;8.57;;;3.17;;
7497;SDS011;3790;48.806;9.140;2023-02-22T10:31:45;3.67;;;2.50;;
7497;SDS011;3790;48.806;9.140;2023-02-22T10:36:48;5.32;;;2.90;;
7497;SDS011;3790;48.806;9.140;2023-02-22T10:41:54;6.38;;;3.20;;
7497;SDS011;3790;48.806;9.140;2023-02-22T10:46:58;3.92;;;2.72;;
7497;SDS011;3790;48.806;9.140;2023-02-22T10:52:01;4.97;;;2.85;;
7497;SDS011;3790;48.806;9.140;2023-02-22T10:57:03;5.45;;;3.08;;
7497;SDS011;3790;48.806;9.140;2023-02-22T11:02:08;6.78;;;4.15;;
7497;SDS011;3790;48.806;9.140;2023-02-22T11:07:31;5.97;;;4.10;;
7497;SDS011;3790;48.806;9.140;2023-02-22T11:12:35;5.00;;;3.55;;
7497;SDS011;3790;48.806;9.140;2023-02-22T11:17:37;8.10;;;4.00;;
7497;SDS011;3790;48.806;9.140;2023-02-22T11:22:40;5.68;;;3.90;;
7497;SDS011;3790;48.806;9.140;2023-02-22T11:27:42;6.28;;;3.85;;
7497;SDS011;3790;48.806;9.140;2023-02-22T11:32:53;8.52;;;4.45;;
7497;SDS011;3790;48.806;9.140;2023-02-22T11:38:08;7.45;;;4.47;;
7497;SDS011;3790;48.806;9.140;2023-02-22T11:43:17;8.18;;;4.95;;
7497;SDS011;3790;48.806;9.140;2023-02-22T11:48:21;8.07;;;4.85;;
7497;SDS011;3790;48.806;9.140;2023-02-22T11:53:28;16.23;;;5.47;;
7497;SDS011;3790;48.806;9.140;2023-02-22T11:58:37;6.72;;;4.85;;
7497;SDS011;3790;48.806;9.140;2023-02-22T12:03:42;6.35;;;4.65;;
7497;SDS011;3790;48.806;9.140;2023-02-22T12:24:40;6.80;;;4.30;;
7497;SDS011;3790;48.806;9.140;2023-02-22T12:29:45;8.10;;;4.95;;
7497;SDS011;3790;48.806;9.140;2023-02-22T12:45:35;8.15;;;5.03;;
7497;SDS011;3790;48.806;9.140;2023-02-22T12:50:45;10.57;;;5.03;;
7497;SDS011;3790;48.806;9.140;2023-02-22T13:01:24;6.13;;;3.97;;
7497;SDS011;3790;48.806;9.140;2023-02-22T13:11:53;8.82;;;4.85;;
7497;SDS011;3790;48.806;9.140;2023-02-22T13:17:01;8.43;;;4.35;;
7497;SDS011;3790;48.806;9.140;2023-02-22T13:22:22;12.20;;;4.93;;
7497;SDS011;3790;48.806;9.140;2023-02-22T13:37:53;8.98;;;5.20;;
7497;SDS011;3790;48.806;9.140;2023-02-22T13:53:58;7.30;;;4.50;;
7497;SDS011;3790;48.806;9.140;2023-02-22T14:15:07;5.38;;;4.28;;
7497;SDS011;3790;48.806;9.140;2023-02-22T14:30:40;8.93;;;5.18;;
7497;SDS011;3790;48.806;9.140;2023-02-22T14:35:41;9.60;;;5.57;;
7497;SDS011;3790;48.806;9.140;2023-02-22T14:40:42;9.57;;;5.47;;
7497;SDS011;3790;48.806;9.140;2023-02-22T14:45:49;7.63;;;5.30;;
7497;SDS011;3790;48.806;9.140;2023-02-22T14:56:05;7.80;;;5.15;;
7497;SDS011;3790;48.806;9.140;2023-02-22T15:06:32;8.40;;;5.40;;
7497;SDS011;3790;48.806;9.140;2023-02-22T15:11:34;8.15;;;5.57;;
7497;SDS011;3790;48.806;9.140;2023-02-22T15:16:34;13.10;;;5.60;;
7497;SDS011;3790;48.806;9.140;2023-02-22T15:21:39;9.05;;;4.97;;
7497;SDS011;3790;48.806;9.140;2023-02-22T15:26:44;7.28;;;5.22;;
7497;SDS011;3790;48.806;9.140;2023-02-22T15:31:45;8.80;;;4.85;;
7497;SDS011;3790;48.806;9.140;2023-02-22T15:36:47;7.78;;;5.30;;
7497;SDS011;3790;48.806;9.140;2023-02-22T15:47:18;7.00;;;4.80;;
7497;SDS011;3790;48.806;9.140;2023-02-22T15:52:24;9.15;;;6.15;;
7497;SDS011;3790;48.806;9.140;2023-02-22T15:57:25;8.60;;;6.32;;
7497;SDS011;3790;48.806;9.140;2023-02-22T16:02:37;8.50;;;6.43;;
7497;SDS011;3790;48.806;9.140;2023-02-22T16:07:49;7.82;;;5.85;;
7497;SDS011;3790;48.806;9.140;2023-02-22T16:13:04;8.45;;;5.35;;
7497;SDS011;3790;48.806;9.140;2023-02-22T16:18:28;9.75;;;5.43;;
7497;SDS011;3790;48.806;9.140;2023-02-22T16:23:42;8.35;;;4.95;;
7497;SDS011;3790;48.806;9.140;2023-02-22T16:28:47;8.02;;;5.80;;
7497;SDS011;3790;48.806;9.140;2023-02-22T16:33:51;7.57;;;5.20;;
7497;SDS011;3790;48.806;9.140;2023-02-22T16:38:53;7.57;;;5.30;;
7497;SDS011;3790;48.806;9.140;2023-02-22T16:43:53;8.27;;;5.30;;
7497;SDS011;3790;48.806;9.140;2023-02-22T16:48:54;7.75;;;5.22;;
7497;SDS011;3790;48.806;9.140;2023-02-22T16:54:02;8.53;;;5.80;;
7497;SDS011;3790;48.806;9.140;2023-02-22T16:59:04;6.93;;;5.40;;
7497;SDS011;3790;48.806;9.140;2023-02-22T17:04:13;5.80;;;5.07;;
7497;SDS011;3790;48.806;9.140;2023-02-22T17:09:19;9.70;;;6.27;;
7497;SDS011;3790;48.806;9.140;2023-02-22T17:14:20;8.97;;;5.87;;
7497;SDS011;3790;48.806;9.140;2023-02-22T17:19:23;8.13;;;5.27;;
7497;SDS011;3790;48.806;9.140;2023-02-22T17:24:23;6.90;;;5.50;;
7497;SDS011;3790;48.806;9.140;2023-02-22T17:29:28;7.53;;;5.30;;
7497;SDS011;3790;48.806;9.140;2023-02-22T17:34:28;7.43;;;5.43;;
7497;SDS011;3790;48.806;9.140;2023-02-22T17:39:29;9.47;;;5.83;;
7497;SDS011;3790;48.806;9.140;2023-02-22T17:44:29;9.37;;;5.77;;
7497;SDS011;3790;48.806;9.140;2023-02-22T17:49:30;8.20;;;5.93;;
7497;SDS011;3790;48.806;9.140;2023-02-22T17:54:31;8.73;;;6.50;;
7497;SDS011;3790;48.806;9.140;2023-02-22T17:59:33;8.00;;;6.00;;
7497;SDS011;3790;48.806;9.140;2023-02-22T18:04:33;11.33;;;6.50;;
7497;SDS011;3790;48.806;9.140;2023-02-22T18:09:35;9.07;;;5.87;;
7497;SDS011;3790;48.806;9.140;2023-02-22T18:14:36;10.30;;;5.60;;
7497;SDS011;3790;48.806;9.140;2023-02-22T18:19:37;7.90;;;5.57;;
7497;SDS011;3790;48.806;9.140;2023-02-22T18:24:37;7.73;;;5.20;;
7497;SDS011;3790;48.806;9.140;2023-02-22T18:29:38;7.57;;;5.90;;
7497;SDS011;3790;48.806;9.140;2023-02-22T18:34:38;7.67;;;4.70;;
7497;SDS011;3790;48.806;9.140;2023-02-22T18:39:39;7.87;;;5.67;;
7497;SDS011;3790;48.806;9.140;2023-02-22T18:44:42;8.70;;;5.57;;
7497;SDS011;3790;48.806;9.140;2023-02-22T18:49:42;8.27;;;5.67;;
7497;SDS011;3790;48.806;9.140;2023-02-22T18:54:42;10.67;;;5.33;;
7497;SDS011;3790;48.806;9.140;2023-02-22T18:59:43;8.73;;;5.43;;
7497;SDS011;3790;48.806;9.140;2023-02-22T19:04:44;12.83;;;7.10;;
7497;SDS011;3790;48.806;9.140;2023-02-22T19:09:44;8.90;;;5.70;;
7497;SDS011;3790;48.806;9.140;2023-02-22T19:14:50;10.37;;;6.17;;
7497;SDS011;3790;48.806;9.140;2023-02-22T19:19:51;10.03;;;5.67;;
7497;SDS011;3790;48.806;9.140;2023-02-22T19:24:52;11.27;;;6.70;;
7497;SDS011;3790;48.806;9.140;2023-02-22T19:29:53;6.93;;;5.43;;
7497;SDS011;3790;48.806;9.140;2023-02-22T19:34:53;9.83;;;5.30;;
7497;SDS011;3790;48.806;9.140;2023-02-22T19:40:02;9.90;;;6.17;;
7497;SDS011;3790;48.806;9.140;2023-02-22T19:45:06;7.83;;;5.80;;
7497;SDS011;3790;48.806;9.140;2023-02-22T19:50:06;11.30;;;6.47;;
7497;SDS011;3790;48.806;9.140;2023-02-22T19:55:07;7.70;;;5.80;;
7497;SDS011;3790;48.806;9.140;2023-02-22T20:00:12;9.27;;;7.07;;
7497;SDS011;3790;48.806;9.140;2023-02-22T20:05:22;6.30;;;5.07;;
7497;SDS011;3790;48.806;9.140;2023-02-22T20:10:22;8.67;;;5.30;;
7497;SDS011;3790;48.806;9.140;2023-02-22T20:15:23;9.93;;;5.63;;
7497;SDS011;3790;48.806;9.140;2023-02-22T20:20:23;9.50;;;6.30;;
7497;SDS011;3790;48.806;9.140;2023-02-22T20:25:25;9.10;;;7.13;;
7497;SDS011;3790;48.806;9.140;2023-02-22T20:30:26;9.03;;;7.63;;
7497;SDS011;3790;48.806;9.140;2023-02-22T20:35:26;10.87;;;7.23;;
7497;SDS011;3790;48.806;9.140;2023-02-22T20:40:27;11.10;;;7.00;;
7497;SDS011;3790;48.806;9.140;2023-02-22T20:45:27;9.63;;;6.50;;
7497;SDS011;3790;48.806;9.140;2023-02-22T20:50:28;10.47;;;7.27;;
7497;SDS011;3790;48.806;9.140;2023-02-22T20:55:28;9.97;;;6.97;;
7497;SDS011;3790;48.806;9.140;2023-02-22T21:00:30;12.27;;;7.40;;
7497;SDS011;3790;48.806;9.140;2023-02-22T21:05:30;9.17;;;7.47;;
7497;SDS011;3790;48.806;9.140;2023-02-22T21:10:33;10.73;;;8.00;;
7497;SDS011;3790;48.806;9.140;2023-02-22T21:15:40;7.77;;;6.73;;
7497;SDS011;3790;48.806;9.140;2023-02-22T21:20:46;9.63;;;7.73;;
7497;SDS011;3790;48.806;9.140;2023-02-22T21:25:50;9.33;;;8.27;;
7497;SDS011;3790;48.806;9.140;2023-02-22T21:30:51;9.50;;;7.17;;
7497;SDS011;3790;48.806;9.140;2023-02-22T21:35:52;10.43;;;8.33;;
7497;SDS011;3790;48.806;9.140;2023-02-22T21:40:52;11.40;;;8.60;;
7497;SDS011;3790;48.806;9.140;2023-02-22T21:46:00;10.20;;;7.47;;
7497;SDS011;3790;48.806;9.140;2023-02-22T21:51:11;14.17;;;8.10;;
7497;SDS011;3790;48.806;9.140;2023-02-22T21:56:24;15.83;;;8.27;;
7497;SDS011;3790;48.806;9.140;2023-02-22T22:01:28;15.57;;;8.40;;
7497;SDS011;3790;48.806;9.140;2023-02-22T22:06:31;8.57;;;7.20;;
7497;SDS011;3790;48.806;9.140;2023-02-22T22:11:34;11.13;;;7.40;;
7497;SDS011;3790;48.806;9.140;2023-02-22T22:16:35;10.77;;;7.23;;
7497;SDS011;3790;48.806;9.140;2023-02-22T22:21:35;9.37;;;7.93;;
7497;SDS011;3790;48.806;9.140;2023-02-22T22:26:36;9.50;;;7.23;;
7497;SDS011;3790;48.806;9.140;2023-02-22T22:31:37;9.37;;;7.23;;
7497;SDS011;3790;48.806;9.140;2023-02-22T22:36:38;10.57;;;7.70;;
7497;SDS011;3790;48.806;9.140;2023-02-22T22:41:39;11.87;;;7.10;;
7497;SDS011;3790;48.806;9.140;2023-02-22T22:46:41;9.70;;;7.33;;
7497;SDS011;3790;48.806;9.140;2023-02-22T22:51:42;12.67;;;7.10;;
7497;SDS011;3790;48.806;9.140;2023-02-22T22:56:46;7.67;;;6.40;;
7497;SDS011;3790;48.806;9.140;2023-02-22T23:01:47;10.60;;;6.60;;
7497;SDS011;3790;48.806;9.140;2023-02-22T23:06:48;8.77;;;6.70;;
7497;SDS011;3790;48.806;9.140;2023-02-22T23:11:50;8.70;;;7.27;;
7497;SDS011;3790;48.806;9.140;2023-02-22T23:16:53;8.33;;;6.67;;
7497;SDS011;3790;48.806;9.140;2023-02-22T23:22:03;9.80;;;6.80;;
7497;SDS011;3790;48.806;9.140;2023-02-22T23:27:06;8.80;;;6.30;;
7497;SDS011;3790;48.806;9.140;2023-02-22T23:32:06;8.93;;;6.83;;
7497;SDS011;3790;48.806;9.140;2023-02-22T23:37:07;9.00;;;6.93;;
7497;SDS011;3790;48.806;9.140;2023-02-22T23:42:09;8.87;;;5.20;;
7497;SDS011;3790;48.806;9.140;2023-02-22T23:47:09;9.07;;;6.10;;
7497;SDS011;3790;48.806;9.140;2023-02-22T23:52:10;7.47;;;6.10;;
7497;SDS011;3790;48.806;9.140;2023-02-22T23:57:15;8.40;;;5.77;;
